Terminal Aerodrome Forecast
Issued by NWS Upton, NY

Home | Current Version | Previous Version | Text Only | Print | Product List | Glossary On
Versions: 1 2 3 4 5 6 7 8 9 10 11 12 13 14 15 16 17 18 19 20 21 22 23 24 25 26 27 28 29 30 31 32 33
590
FTUS41 KOKX 230232 AAB
TAFLGA
TAF AMD
KLGA 230232Z 2303/2324 18006KT P6SM SHRA SCT020 SCT045 BKN070
     FM230400 09008KT P6SM SHRA SCT025 OVC050
     FM230800 04008KT P6SM SCT025
     FM231600 12009KT P6SM BKN040=

USA.gov is the U.S. government's official web portal to all federal, state and local government web resources and services.